Airfield :
LOGIN :

Register | Disclaimer

   EN    FR    IT 

 










Legend :    VFR   Marginal VFR   IFR   Intensive IFR   Very Intensive IFR
Visi :
Ceiling :
>= 8 km
>= 3000ft
5 to 8 km
1000 to 3000 ft
1500m to 5 km
500 to 1000 ft
800 to 1500m
200 to 500 ft
< 800m
< 200 ft
Symbols :   Thunderstorms  Fog  Heavy snow  Heavy precipitations  Wind > 20 kt
SIGMETs :     Misc.  Thunderstorms  Icing  Turbulence  Mountain Waves  Volcanic Ashes






- Airport Elevation : 1027 ft
- IATA code : TMX


DAUT - Timimoun

CURRENT METAR :
  • 041000Z 09016KT CAVOK 21/00 Q1016

EXPIRED METARs :
  • 040900Z 09018KT CAVOK 19/00 Q1016
  • 040800Z 07014KT CAVOK 18/01 Q1015

TAF TAF DAUT
Valid from the 04 at 09:00 until the 04 at 18:00 UTC


040800Z 0409/0418 08015KT CAVOK
PROB30
TEMPO 0409/0412 08015G25KT 4000 DRSA



MET'MAP, your aeronautical weather chart ! - Copyright ORBIFLY December 2007 - Disclaimer

ORBIFLY MET'MAP TEAM :

Programming & Development : Alexandra Zaïnal
Concept & original design : Baudouin d'Aumeries
Assistance for programming : Marc-Olivier Méhu
Technical & hardware support : Manuel Goepfert

Contact : metmap@orbifly.com




SOURCES & CREDITS :

   NOAA